createdAt,value
2022-09-04T00:00:19.097Z,14.49
2022-09-04T00:03:16.029Z,14.46
2022-09-04T00:06:09.664Z,14.43
2022-09-04T00:09:07.503Z,14.08
2022-09-04T00:12:09.507Z,14.52
2022-09-04T00:15:14.081Z,14.36
2022-09-04T00:18:25.631Z,14.40
2022-09-04T00:21:28.819Z,14.45
2022-09-04T00:24:19.482Z,14.22
2022-09-04T00:27:21.231Z,14.56
2022-09-04T00:30:16.704Z,14.64
2022-09-04T00:33:08.853Z,14.77
2022-09-04T00:36:01.931Z,14.47
2022-09-04T00:38:56.366Z,14.18
2022-09-04T00:41:51.471Z,14.34
2022-09-04T00:44:56.836Z,14.38
2022-09-04T00:47:55.261Z,14.57
2022-09-04T00:51:20.975Z,14.70
2022-09-04T00:54:24.332Z,13.98
2022-09-04T00:57:52.337Z,14.22
2022-09-04T01:00:39.482Z,14.01
2022-09-04T01:03:40.684Z,14.38
2022-09-04T01:06:40.775Z,14.36
2022-09-04T01:09:59.074Z,14.17
2022-09-04T01:12:57.065Z,14.18
2022-09-04T01:16:05.397Z,14.09
2022-09-04T01:19:26.617Z,14.43
2022-09-04T01:23:14.996Z,13.94
2022-09-04T01:26:21.346Z,14.27
2022-09-04T01:29:11.392Z,14.77
2022-09-04T01:32:26.201Z,14.36
2022-09-04T01:35:27.963Z,14.57
2022-09-04T01:38:36.539Z,14.70
2022-09-04T01:41:43.423Z,14.96
2022-09-04T01:44:31.018Z,14.89
2022-09-04T01:47:40.350Z,14.82
2022-09-04T01:50:31.495Z,14.67
2022-09-04T01:53:25.282Z,14.48
2022-09-04T01:56:19.392Z,14.61
2022-09-04T01:59:32.805Z,14.61
2022-09-04T02:02:44.629Z,14.50
2022-09-04T02:06:08.623Z,14.10
2022-09-04T02:09:29.805Z,13.98
2022-09-04T02:12:25.430Z,13.93
2022-09-04T02:15:31.658Z,13.82
2022-09-04T02:18:27.362Z,14.02
2022-09-04T02:21:29.004Z,13.76
2022-09-04T02:24:22.401Z,13.61
2022-09-04T02:27:16.517Z,13.49
2022-09-04T02:30:10.527Z,13.42
2022-09-04T02:33:06.249Z,13.45
2022-09-04T02:36:02.604Z,13.36
2022-09-04T02:38:59.032Z,13.54
2022-09-04T02:42:03.896Z,13.64
2022-09-04T02:45:28.648Z,13.84
2022-09-04T02:48:26.596Z,13.76
2022-09-04T02:51:28.804Z,13.83
2022-09-04T02:54:34.253Z,14.25
2022-09-04T02:57:42.771Z,13.87
2022-09-04T03:00:47.665Z,13.56
2022-09-04T03:03:40.518Z,13.58
2022-09-04T03:06:48.735Z,14.11
2022-09-04T03:09:50.424Z,14.02
2022-09-04T03:12:55.152Z,13.91
2022-09-04T03:16:18.265Z,14.20
2022-09-04T03:19:18.536Z,13.50
2022-09-04T03:22:27.185Z,13.25
2022-09-04T03:25:40.938Z,13.38
2022-09-04T03:28:58.674Z,13.74
2022-09-04T03:31:51.294Z,14.11
2022-09-04T03:34:56.527Z,13.83
2022-09-04T03:38:05.019Z,13.28
2022-09-04T03:41:04.486Z,13.12
2022-09-04T03:44:08.511Z,13.42
2022-09-04T03:47:01.382Z,13.49
2022-09-04T03:50:16.441Z,13.67
2022-09-04T03:53:03.299Z,13.67
2022-09-04T03:56:02.510Z,13.77
2022-09-04T03:58:58.334Z,13.80
2022-09-04T04:02:20.437Z,13.45
2022-09-04T04:05:37.188Z,13.57
2022-09-04T04:08:24.117Z,13.68
2022-09-04T04:11:28.259Z,13.29
2022-09-04T04:14:43.109Z,13.05
2022-09-04T04:17:56.116Z,13.11
2022-09-04T04:20:58.883Z,13.32
2022-09-04T04:24:04.335Z,12.84
2022-09-04T04:27:21.925Z,12.71
2022-09-04T04:30:16.069Z,12.87
2022-09-04T04:33:42.563Z,12.81
2022-09-04T04:36:49.366Z,12.78
2022-09-04T04:40:03.713Z,13.08
2022-09-04T04:43:12.907Z,12.89
2022-09-04T04:46:27.415Z,13.03
2022-09-04T04:49:34.214Z,12.85
2022-09-04T04:52:49.197Z,12.63
2022-09-04T04:55:49.371Z,12.54
2022-09-04T04:59:20.728Z,12.63
2022-09-04T05:02:17.138Z,12.93
2022-09-04T05:05:17.821Z,13.07
2022-09-04T05:08:25.259Z,13.43
2022-09-04T05:11:41.619Z,13.30
2022-09-04T05:15:07.197Z,13.84
2022-09-04T05:18:01.779Z,14.41
2022-09-04T05:21:21.292Z,14.31
2022-09-04T05:24:20.885Z,14.36
2022-09-04T05:27:48.362Z,14.47
2022-09-04T05:31:03.126Z,14.30
2022-09-04T05:34:10.212Z,14.30
2022-09-04T05:37:20.461Z,14.09
2022-09-04T05:40:31.356Z,14.35
2022-09-04T05:43:43.327Z,14.36
2022-09-04T05:46:39.490Z,15.69
2022-09-04T05:49:47.840Z,17.23
2022-09-04T05:52:49.427Z,16.79
2022-09-04T05:55:51.248Z,17.02
2022-09-04T05:58:57.092Z,17.79
2022-09-04T06:02:21.717Z,17.50
2022-09-04T06:05:57.576Z,17.98
2022-09-04T06:08:47.233Z,19.95
2022-09-04T06:11:40.366Z,19.96
2022-09-04T06:14:35.943Z,18.96
2022-09-04T06:17:50.588Z,18.41
2022-09-04T06:20:48.064Z,16.29
2022-09-04T06:23:52.036Z,18.27
2022-09-04T06:27:09.228Z,20.53
2022-09-04T06:30:05.372Z,20.83
2022-09-04T06:33:00.766Z,20.43
2022-09-04T06:35:51.078Z,19.94
2022-09-04T06:38:43.965Z,20.69
2022-09-04T06:42:09.465Z,21.13
2022-09-04T06:45:43.798Z,20.37
2022-09-04T06:48:48.798Z,18.30
2022-09-04T06:51:57.880Z,17.57
2022-09-04T06:54:56.292Z,19.24
2022-09-04T06:58:11.439Z,19.53
2022-09-04T07:01:08.677Z,20.67
2022-09-04T07:04:26.781Z,20.01
2022-09-04T07:07:34.819Z,20.59
2022-09-04T07:10:25.180Z,21.58
2022-09-04T07:13:57.148Z,23.16
2022-09-04T07:16:44.440Z,20.84
2022-09-04T07:19:51.353Z,21.05
2022-09-04T07:23:00.091Z,19.58
2022-09-04T07:26:01.438Z,18.20
2022-09-04T07:29:10.743Z,17.75
2022-09-04T07:32:06.836Z,20.32
2022-09-04T07:35:36.384Z,22.19
2022-09-04T07:38:50.541Z,23.19
2022-09-04T07:41:44.281Z,24.88
2022-09-04T07:44:39.646Z,25.09
2022-09-04T07:47:38.226Z,25.25
2022-09-04T07:50:44.782Z,24.81
2022-09-04T07:53:47.155Z,25.61
2022-09-04T07:56:46.121Z,23.96
2022-09-04T07:59:54.159Z,24.86
2022-09-04T08:03:25.660Z,25.44
2022-09-04T08:06:21.113Z,26.32
2022-09-04T08:09:20.415Z,25.27
2022-09-04T08:12:26.523Z,24.73
2022-09-04T08:15:20.052Z,25.34
2022-09-04T08:18:20.225Z,26.84
2022-09-04T08:21:19.396Z,27.64
2022-09-04T08:24:34.736Z,25.98
2022-09-04T08:27:44.602Z,24.69
2022-09-04T08:30:55.187Z,25.97
2022-09-04T08:33:56.768Z,23.74
2022-09-04T08:36:52.404Z,25.30
2022-09-04T08:39:39.444Z,26.46
2022-09-04T08:42:50.515Z,27.39
2022-09-04T08:45:56.007Z,27.03
2022-09-04T08:49:17.148Z,29.71
2022-09-04T08:52:44.933Z,28.24
2022-09-04T08:56:01.153Z,28.41
2022-09-04T08:59:19.969Z,26.96
2022-09-04T09:02:16.042Z,25.06
2022-09-04T09:05:10.049Z,28.03
2022-09-04T09:08:21.733Z,25.71
2022-09-04T09:11:20.709Z,29.27
2022-09-04T09:14:13.328Z,26.54
2022-09-04T09:17:14.139Z,24.52
2022-09-04T09:20:10.525Z,25.90
2022-09-04T09:23:18.472Z,29.78
2022-09-04T09:26:18.654Z,24.81
2022-09-04T09:29:24.479Z,25.36
2022-09-04T09:32:23.691Z,25.00
2022-09-04T09:35:23.717Z,28.66
2022-09-04T09:38:35.443Z,28.45
2022-09-04T09:41:47.147Z,28.00
2022-09-04T09:44:46.373Z,28.25
2022-09-04T09:48:06.825Z,28.35
2022-09-04T09:51:31.789Z,28.02
2022-09-04T09:54:43.430Z,27.47
2022-09-04T09:57:48.770Z,28.03
2022-09-04T10:00:46.726Z,29.29
2022-09-04T10:03:39.737Z,27.44
2022-09-04T10:07:00.715Z,29.65
2022-09-04T10:09:56.784Z,27.72
2022-09-04T10:13:15.368Z,25.94
2022-09-04T10:16:35.282Z,28.69
2022-09-04T10:19:53.850Z,28.89
2022-09-04T10:22:51.749Z,26.75
2022-09-04T10:25:58.088Z,30.09
2022-09-04T10:29:10.972Z,30.58
2022-09-04T10:32:34.136Z,32.14
2022-09-04T10:35:22.553Z,29.02
2022-09-04T10:38:21.510Z,25.26
2022-09-04T10:41:31.779Z,26.41
2022-09-04T10:44:44.266Z,29.72
2022-09-04T10:48:16.142Z,29.77
2022-09-04T10:51:27.732Z,28.65
2022-09-04T10:54:45.085Z,31.02
2022-09-04T10:57:45.477Z,28.48
2022-09-04T11:00:39.762Z,26.86
2022-09-04T11:03:57.676Z,24.72
2022-09-04T11:07:16.931Z,29.20
2022-09-04T11:10:34.151Z,29.90
2022-09-04T11:13:56.373Z,30.82
2022-09-04T11:17:15.687Z,31.72
2022-09-04T11:20:17.542Z,31.78
2022-09-04T11:23:26.925Z,30.40
2022-09-04T11:26:24.047Z,33.85
2022-09-04T11:29:16.840Z,32.33
2022-09-04T11:32:41.429Z,33.00
2022-09-04T11:35:34.644Z,31.92
2022-09-04T11:38:50.746Z,28.95
2022-09-04T11:42:50.289Z,30.05
2022-09-04T11:45:52.521Z,29.68
2022-09-04T11:49:10.595Z,27.06
2022-09-04T11:52:00.344Z,28.60
2022-09-04T11:55:02.313Z,29.06
2022-09-04T11:58:15.656Z,28.51
2022-09-04T12:01:23.748Z,29.86
2022-09-04T12:04:23.042Z,30.60
2022-09-04T12:07:24.758Z,30.53
2022-09-04T12:10:33.355Z,29.60
2022-09-04T12:13:29.461Z,31.64
2022-09-04T12:16:27.261Z,30.24
2022-09-04T12:19:29.498Z,30.37
2022-09-04T12:22:31.306Z,31.21
2022-09-04T12:25:52.065Z,31.41
2022-09-04T12:28:57.497Z,30.89
2022-09-04T12:32:07.287Z,31.45
2022-09-04T12:35:08.313Z,31.97
2022-09-04T12:38:32.672Z,31.62
2022-09-04T12:41:37.235Z,30.72
2022-09-04T12:44:36.462Z,31.41
2022-09-04T12:47:58.139Z,31.47
2022-09-04T12:51:01.457Z,30.18
2022-09-04T12:54:20.692Z,30.57
2022-09-04T12:57:16.401Z,31.25
2022-09-04T13:00:12.597Z,30.51
2022-09-04T13:03:17.591Z,30.94
2022-09-04T13:06:22.964Z,29.96
2022-09-04T13:09:31.833Z,30.91
2022-09-04T13:12:21.561Z,30.90
2022-09-04T13:15:08.670Z,30.21
2022-09-04T13:18:14.220Z,29.86
2022-09-04T13:21:22.563Z,31.36
2022-09-04T13:24:15.029Z,29.84
2022-09-04T13:27:14.024Z,29.05
2022-09-04T13:30:07.458Z,29.20
2022-09-04T13:33:15.771Z,29.71
2022-09-04T13:36:27.692Z,30.06
2022-09-04T13:39:39.193Z,30.53
2022-09-04T13:42:39.816Z,28.68
2022-09-04T13:45:45.292Z,29.46
2022-09-04T13:48:43.016Z,31.76
2022-09-04T13:51:37.118Z,30.21
2022-09-04T13:54:27.619Z,28.80
2022-09-04T13:57:26.586Z,30.40
2022-09-04T14:00:14.782Z,30.42
2022-09-04T14:03:12.750Z,29.92
2022-09-04T14:06:03.076Z,30.63
2022-09-04T14:09:04.674Z,31.50
2022-09-04T14:12:11.284Z,31.49
2022-09-04T14:15:20.466Z,29.63
2022-09-04T14:18:13.967Z,29.33
2022-09-04T14:21:11.077Z,29.57
2022-09-04T14:24:13.818Z,30.19
2022-09-04T14:27:30.629Z,28.97
2022-09-04T14:30:24.412Z,27.94
2022-09-04T14:33:19.079Z,29.62
2022-09-04T14:36:18.591Z,27.87
2022-09-04T14:39:15.894Z,28.16
2022-09-04T14:42:25.651Z,28.95
2022-09-04T14:45:25.806Z,29.46
2022-09-04T14:48:15.643Z,28.35
2022-09-04T14:51:14.847Z,29.35
2022-09-04T14:54:02.838Z,29.33
2022-09-04T14:56:55.661Z,27.68
2022-09-04T14:59:49.367Z,29.01
2022-09-04T15:03:09.494Z,27.37
2022-09-04T15:06:01.831Z,27.85
2022-09-04T15:08:50.700Z,28.14
2022-09-04T15:11:38.058Z,27.85
2022-09-04T15:14:35.529Z,27.83
2022-09-04T15:17:28.331Z,28.41
2022-09-04T15:20:22.745Z,28.98
2022-09-04T15:23:27.632Z,29.15
2022-09-04T15:26:36.898Z,27.63
2022-09-04T15:29:28.500Z,27.69
2022-09-04T15:32:22.276Z,28.13
2022-09-04T15:35:21.217Z,27.32
2022-09-04T15:38:25.524Z,26.73
2022-09-04T15:41:20.856Z,26.27
2022-09-04T15:44:21.699Z,27.00
2022-09-04T15:47:36.429Z,28.10
2022-09-04T15:50:27.932Z,28.42
2022-09-04T15:53:32.374Z,27.49
2022-09-04T15:56:19.284Z,27.06
2022-09-04T15:59:09.064Z,25.76
2022-09-04T16:02:03.141Z,25.88
2022-09-04T16:05:03.302Z,25.30
2022-09-04T16:08:24.203Z,25.05
2022-09-04T16:11:34.443Z,24.96
2022-09-04T16:14:35.362Z,25.30
2022-09-04T16:17:29.287Z,24.66
2022-09-04T16:20:27.572Z,25.02
2022-09-04T16:23:18.716Z,24.59
2022-09-04T16:26:16.166Z,24.74
2022-09-04T16:29:08.326Z,24.27
2022-09-04T16:31:57.758Z,24.41
2022-09-04T16:35:16.484Z,24.55
2022-09-04T16:38:15.963Z,24.83
2022-09-04T16:41:12.946Z,24.95
2022-09-04T16:44:46.535Z,24.68
2022-09-04T16:48:43.103Z,24.88
2022-09-04T16:51:42.201Z,24.21
2022-09-04T16:54:49.177Z,24.29
2022-09-04T16:57:57.152Z,24.21
2022-09-04T17:01:13.949Z,24.54
2022-09-04T17:04:16.976Z,24.59
2022-09-04T17:07:20.121Z,24.74
2022-09-04T17:10:14.040Z,24.45
2022-09-04T17:13:21.303Z,24.27
2022-09-04T17:16:19.445Z,23.97
2022-09-04T17:19:14.093Z,23.56
2022-09-04T17:28:19.009Z,22.78
2022-09-04T17:29:05.206Z,22.44
2022-09-04T17:29:40.389Z,22.01
2022-09-04T17:39:47.721Z,21.65
2022-09-04T17:40:41.349Z,21.57
2022-09-04T17:40:56.844Z,20.76
2022-09-04T17:43:28.457Z,20.28
2022-09-04T17:46:27.687Z,19.87
2022-09-04T17:49:22.192Z,19.70
2022-09-04T17:52:33.544Z,19.52
2022-09-04T17:55:21.944Z,20.07
2022-09-04T17:58:47.317Z,20.15
2022-09-04T18:01:51.698Z,19.99
2022-09-04T18:04:57.416Z,19.78
2022-09-04T18:08:09.338Z,19.48
2022-09-04T18:11:20.774Z,19.15
2022-09-04T18:14:12.059Z,18.98
2022-09-04T18:17:12.527Z,18.90
2022-09-04T18:20:15.529Z,18.69
2022-09-04T18:23:15.512Z,18.79
2022-09-04T18:26:11.252Z,18.18
2022-09-04T18:30:42.897Z,18.18
2022-09-04T18:37:20.591Z,18.02
2022-09-04T18:37:21.167Z,18.15
2022-09-04T18:39:20.223Z,17.91
2022-09-04T18:47:41.612Z,17.89
2022-09-04T18:50:37.887Z,17.66
2022-09-04T18:51:03.076Z,17.56
2022-09-04T18:51:51.182Z,17.59
2022-09-04T18:54:53.835Z,17.64
2022-09-04T18:57:54.189Z,17.64
2022-09-04T19:00:57.050Z,17.63
2022-09-04T19:03:49.501Z,17.57
2022-09-04T19:06:53.747Z,17.64
2022-09-04T19:10:15.905Z,18.01
2022-09-04T19:13:12.362Z,18.14
2022-09-04T19:15:59.335Z,18.04
2022-09-04T19:18:59.090Z,18.30
2022-09-04T19:21:57.841Z,18.55
2022-09-04T19:24:54.116Z,18.62
2022-09-04T19:27:53.175Z,18.08
2022-09-04T19:30:51.954Z,18.30
2022-09-04T19:33:57.668Z,18.48
2022-09-04T19:36:54.844Z,18.02
2022-09-04T19:45:54.911Z,17.67
2022-09-04T19:46:06.805Z,17.74
2022-09-04T19:46:40.036Z,17.44
2022-09-04T19:53:17.966Z,17.33
2022-09-04T19:53:31.574Z,17.28
2022-09-04T19:56:30.622Z,17.11
2022-09-04T19:59:30.848Z,17.28
2022-09-04T20:02:44.274Z,17.43
2022-09-04T20:05:37.519Z,17.12
2022-09-04T20:08:32.898Z,16.78
2022-09-04T20:11:34.978Z,16.45
2022-09-04T20:14:34.133Z,16.12
2022-09-04T20:17:42.822Z,15.95
2022-09-04T20:20:35.992Z,16.24
2022-09-04T20:23:52.115Z,16.65
2022-09-04T20:26:52.542Z,17.06
2022-09-04T20:30:07.608Z,17.19
2022-09-04T20:33:12.089Z,17.22
2022-09-04T20:36:08.904Z,17.10
2022-09-04T20:39:22.518Z,17.43
2022-09-04T20:42:34.731Z,17.35
2022-09-04T20:47:30.655Z,17.42
2022-09-04T20:52:43.805Z,17.58
2022-09-04T20:53:05.454Z,17.31
2022-09-04T20:55:25.577Z,17.35
2022-09-04T21:03:05.441Z,17.44
2022-09-04T21:03:20.861Z,17.43
2022-09-04T21:05:05.857Z,16.74
2022-09-04T21:08:33.119Z,16.68
2022-09-04T21:11:41.122Z,16.47
2022-09-04T21:14:45.810Z,16.44
2022-09-04T21:18:09.128Z,16.26
2022-09-04T21:21:05.028Z,16.31
2022-09-04T21:24:17.740Z,16.37
2022-09-04T21:27:28.065Z,16.11
2022-09-04T21:30:18.788Z,16.07
2022-09-04T21:33:27.695Z,16.44
2022-09-04T21:36:41.177Z,16.87
2022-09-04T21:39:57.726Z,16.81
2022-09-04T21:42:54.337Z,16.41
2022-09-04T21:45:59.954Z,15.92
2022-09-04T21:49:09.613Z,15.66
2022-09-04T21:52:01.019Z,15.35
2022-09-04T22:00:08.000Z,15.08
2022-09-04T22:02:40.787Z,15.50
2022-09-04T22:02:43.462Z,15.21
2022-09-04T22:05:39.512Z,15.89
2022-09-04T22:13:31.243Z,16.16
2022-09-04T22:13:37.634Z,16.22
2022-09-04T22:15:13.158Z,15.71
2022-09-04T22:18:35.442Z,15.35
2022-09-04T22:22:02.114Z,15.50
2022-09-04T22:25:28.437Z,15.24
2022-09-04T22:28:45.147Z,14.80
2022-09-04T22:31:35.120Z,15.07
2022-09-04T22:34:30.790Z,15.09
2022-09-04T22:37:59.221Z,14.95
2022-09-04T22:41:17.724Z,14.90
2022-09-04T22:44:48.715Z,14.86
2022-09-04T22:48:04.194Z,15.05
2022-09-04T22:51:18.567Z,15.49
2022-09-04T22:54:44.080Z,15.77
2022-09-04T22:57:50.439Z,15.34
2022-09-04T23:01:25.541Z,15.18
2022-09-04T23:04:26.430Z,15.43
2022-09-04T23:13:47.606Z,15.32
2022-09-04T23:13:52.403Z,15.26
2022-09-04T23:14:17.398Z,15.49
2022-09-04T23:17:23.486Z,15.62
2022-09-04T23:26:32.358Z,16.17
2022-09-04T23:26:48.843Z,16.15
2022-09-04T23:27:02.095Z,15.42
2022-09-04T23:30:05.697Z,14.53
2022-09-04T23:33:31.071Z,14.96
2022-09-04T23:36:42.701Z,14.56
2022-09-04T23:39:54.216Z,14.50
2022-09-04T23:43:25.081Z,14.85
2022-09-04T23:46:19.148Z,14.99
2022-09-04T23:49:22.325Z,15.03
2022-09-04T23:52:34.059Z,14.86
2022-09-04T23:55:49.938Z,14.35
2022-09-04T23:59:33.511Z,13.73
